Freeport, Minnesota
Current Conditions -  °F | °C
As of 12:53 PM on Monday 20 Oct 2014 (Local Time) from KD39 Reporting Station
Clear Clear  
Wind Chill: 59°   Ceiling: Unl
Heat Index: 59°   Visibility: 10mi
Dew Point: 41°   Wind: 12mph
Humidity: 52%   Direction: 320°NW
Pressure: 30.03"   Gusts: NA
Location:  45.66°N, 94.69°W
Report Text: KD39 201753Z AUTO 32010KT 10SM CLR 15/05 A3003 RMK AO2 T01490050 10149 20016
Loading
Personal Weather Stations






























Interactive Weather Map
Tropical Storm Tracking
New forecast layout! Learn more

10-Day Weather Forecast

Advertisements
Track Severe Weather on mobile